createdAt,value
2023-03-15T00:01:19.308Z,101040.59
2023-03-15T00:03:47.548Z,101035.13
2023-03-15T00:06:15.665Z,101056.81
2023-03-15T00:08:47.904Z,101072.06
2023-03-15T00:11:17.043Z,101078.16
2023-03-15T00:13:45.477Z,101073.81
2023-03-15T00:16:17.513Z,101059.91
2023-03-15T00:18:48.320Z,101071.44
2023-03-15T00:21:15.731Z,101078.19
2023-03-15T00:23:42.862Z,101075.25
2023-03-15T00:26:10.058Z,101079.69
2023-03-15T00:28:37.161Z,101075.13
2023-03-15T00:31:23.796Z,101087.22
2023-03-15T00:33:55.337Z,101078.97
2023-03-15T00:36:24.140Z,101093.50
2023-03-15T00:38:53.709Z,101087.03
2023-03-15T00:41:29.946Z,101089.16
2023-03-15T00:44:11.121Z,101087.53
2023-03-15T00:46:38.179Z,101087.94
2023-03-15T00:49:05.165Z,101086.84
2023-03-15T00:51:33.506Z,101091.88
2023-03-15T00:54:00.765Z,101092.81
2023-03-15T00:56:30.083Z,101085.06
2023-03-15T00:58:58.004Z,101080.50
2023-03-15T01:01:29.929Z,101093.19
2023-03-15T01:03:57.561Z,101088.59
2023-03-15T01:06:27.856Z,101087.50
2023-03-15T01:08:56.727Z,101088.78
2023-03-15T01:11:27.721Z,101095.44
2023-03-15T01:13:57.812Z,101100.34
2023-03-15T01:16:26.522Z,101105.13
2023-03-15T01:18:54.216Z,101105.28
2023-03-15T01:21:23.050Z,101100.59
2023-03-15T01:23:50.814Z,101099.84
2023-03-15T01:26:18.923Z,101100.16
2023-03-15T01:28:46.832Z,101112.38
2023-03-15T01:31:30.363Z,101109.75
2023-03-15T01:33:59.149Z,101104.41
2023-03-15T01:36:26.095Z,101111.34
2023-03-15T01:38:54.992Z,101128.06
2023-03-15T01:41:23.223Z,101129.81
2023-03-15T01:43:50.732Z,101141.25
2023-03-15T01:46:25.368Z,101126.81
2023-03-15T01:49:13.405Z,101129.69
2023-03-15T01:51:47.115Z,101133.41
2023-03-15T01:54:42.282Z,101133.66
2023-03-15T01:57:36.312Z,101150.59
2023-03-15T02:00:11.981Z,101144.97
2023-03-15T02:02:53.627Z,101162.09
2023-03-15T02:05:38.609Z,101164.38
2023-03-15T02:08:08.137Z,101148.78
2023-03-15T02:10:41.002Z,101145.84
2023-03-15T02:13:09.479Z,101147.34
2023-03-15T02:15:36.527Z,101141.69
2023-03-15T02:18:03.772Z,101137.72
2023-03-15T02:20:42.451Z,101153.94
2023-03-15T02:23:13.979Z,101153.81
2023-03-15T02:26:05.437Z,101154.13
2023-03-15T02:28:32.818Z,101167.41
2023-03-15T02:31:00.770Z,101155.78
2023-03-15T02:33:39.369Z,101167.25
2023-03-15T02:36:19.365Z,101160.97
2023-03-15T02:38:47.504Z,101165.56
2023-03-15T02:41:19.421Z,101155.69
2023-03-15T02:43:50.389Z,101164.16
2023-03-15T02:46:18.329Z,101162.59
2023-03-15T02:48:46.868Z,101174.81
2023-03-15T02:51:23.743Z,101170.13
2023-03-15T02:53:50.873Z,101178.13
2023-03-15T02:56:17.940Z,101188.72
2023-03-15T02:58:45.811Z,101191.41
2023-03-15T03:01:14.568Z,101205.75
2023-03-15T03:03:43.254Z,101216.50
2023-03-15T03:06:12.460Z,101222.69
2023-03-15T03:08:39.952Z,101207.00
2023-03-15T03:11:07.720Z,101224.00
2023-03-15T03:13:34.628Z,101230.78
2023-03-15T03:16:02.207Z,101229.91
2023-03-15T03:18:30.356Z,101217.09
2023-03-15T03:20:59.290Z,101228.09
2023-03-15T03:23:27.174Z,101215.00
2023-03-15T03:25:56.446Z,101217.69
2023-03-15T03:28:29.922Z,101219.84
2023-03-15T03:30:58.707Z,101227.59
2023-03-15T03:33:25.843Z,101232.94
2023-03-15T03:35:54.188Z,101237.63
2023-03-15T03:38:21.212Z,101247.25
2023-03-15T03:40:48.194Z,101241.06
2023-03-15T03:43:15.148Z,101247.94
2023-03-15T03:45:42.247Z,101246.56
2023-03-15T03:48:09.261Z,101258.16
2023-03-15T03:50:36.196Z,101268.81
2023-03-15T03:53:03.565Z,101262.41
2023-03-15T03:55:30.578Z,101262.91
2023-03-15T03:57:57.568Z,101268.75
2023-03-15T04:00:24.609Z,101269.78
2023-03-15T04:02:54.332Z,101263.31
2023-03-15T04:05:21.786Z,101267.78
2023-03-15T04:07:48.777Z,101267.97
2023-03-15T04:10:16.486Z,101280.47
2023-03-15T04:12:44.396Z,101279.59
2023-03-15T04:15:31.555Z,101284.34
2023-03-15T04:17:58.625Z,101280.84
2023-03-15T04:20:27.466Z,101284.50
2023-03-15T04:22:54.851Z,101285.50
2023-03-15T04:25:22.321Z,101277.97
2023-03-15T04:27:58.791Z,101288.56
2023-03-15T04:30:30.676Z,101280.53
2023-03-15T04:33:03.698Z,101281.28
2023-03-15T04:35:36.105Z,101291.47
2023-03-15T04:38:07.728Z,101284.38
2023-03-15T04:40:39.498Z,101292.19
2023-03-15T04:43:06.726Z,101293.22
2023-03-15T04:45:35.833Z,101308.41
2023-03-15T04:48:07.047Z,101309.69
2023-03-15T04:50:34.015Z,101320.53
2023-03-15T04:53:01.667Z,101323.94
2023-03-15T04:55:29.057Z,101324.13
2023-03-15T04:57:56.788Z,101330.59
2023-03-15T05:00:24.280Z,101330.09
2023-03-15T05:02:55.031Z,101339.31
2023-03-15T05:05:26.087Z,101333.91
2023-03-15T05:07:54.233Z,101337.38
2023-03-15T05:10:21.272Z,101351.53
2023-03-15T05:12:58.835Z,101350.38
2023-03-15T05:15:25.839Z,101351.81
2023-03-15T05:17:55.080Z,101352.16
2023-03-15T05:20:23.311Z,101370.03
2023-03-15T05:22:50.325Z,101363.63
2023-03-15T05:25:17.364Z,101358.06
2023-03-15T05:27:46.440Z,101356.06
2023-03-15T05:30:15.554Z,101354.94
2023-03-15T05:32:44.702Z,101365.38
2023-03-15T05:35:13.442Z,101366.94
2023-03-15T05:37:40.649Z,101376.03
2023-03-15T05:40:09.007Z,101368.13
2023-03-15T05:42:37.269Z,101374.84
2023-03-15T05:45:04.841Z,101371.22
2023-03-15T05:47:33.222Z,101367.50
2023-03-15T05:50:00.977Z,101375.59
2023-03-15T05:52:28.988Z,101374.66
2023-03-15T05:54:55.940Z,101384.16
2023-03-15T05:57:22.956Z,101375.44
2023-03-15T05:59:50.331Z,101377.47
2023-03-15T06:02:17.347Z,101386.69
2023-03-15T06:04:44.412Z,101397.09
2023-03-15T06:07:11.577Z,101400.34
2023-03-15T06:09:38.565Z,101395.88
2023-03-15T06:12:25.499Z,101409.19
2023-03-15T06:14:52.590Z,101405.47
2023-03-15T06:17:19.740Z,101406.09
2023-03-15T06:19:46.879Z,101415.06
2023-03-15T06:22:13.935Z,101413.38
2023-03-15T06:24:41.462Z,101407.06
2023-03-15T06:27:08.629Z,101418.72
2023-03-15T06:29:35.573Z,101416.41
2023-03-15T06:32:03.746Z,101420.19
2023-03-15T06:34:30.760Z,101427.19
2023-03-15T06:36:57.767Z,101424.94
2023-03-15T06:39:24.933Z,101425.16
2023-03-15T06:41:58.699Z,101424.88
2023-03-15T06:44:25.753Z,101437.19
2023-03-15T06:46:52.681Z,101448.97
2023-03-15T06:49:19.690Z,101447.22
2023-03-15T06:51:46.634Z,101445.53
2023-03-15T06:54:13.609Z,101442.28
2023-03-15T06:56:41.880Z,101472.00
2023-03-15T06:59:08.899Z,101460.41
2023-03-15T07:01:35.918Z,101462.94
2023-03-15T07:04:03.061Z,101465.78
2023-03-15T07:06:30.470Z,101470.94
2023-03-15T07:08:57.384Z,101474.69
2023-03-15T07:11:24.341Z,101473.47
2023-03-15T07:13:51.372Z,101473.97
2023-03-15T07:16:18.384Z,101487.50
2023-03-15T07:18:45.596Z,101481.47
2023-03-15T07:21:12.526Z,101488.59
2023-03-15T07:23:39.443Z,101507.47
2023-03-15T07:26:06.396Z,101510.69
2023-03-15T07:28:33.380Z,101512.28
2023-03-15T07:31:04.210Z,101512.50
2023-03-15T07:33:33.779Z,101512.59
2023-03-15T07:36:04.590Z,101515.00
2023-03-15T07:38:32.586Z,101514.38
2023-03-15T07:41:03.276Z,101524.44
2023-03-15T07:43:30.280Z,101516.06
2023-03-15T07:45:57.208Z,101511.13
2023-03-15T07:48:24.186Z,101530.09
2023-03-15T07:50:51.924Z,101533.69
2023-03-15T07:53:18.852Z,101530.00
2023-03-15T07:55:48.312Z,101540.34
2023-03-15T07:58:15.715Z,101551.75
2023-03-15T08:00:43.707Z,101555.22
2023-03-15T08:03:48.183Z,101556.56
2023-03-15T08:06:15.097Z,101542.66
2023-03-15T08:08:42.122Z,101551.84
2023-03-15T08:11:09.089Z,101555.56
2023-03-15T08:13:36.035Z,101561.03
2023-03-15T08:16:03.900Z,101571.50
2023-03-15T08:18:31.381Z,101578.00
2023-03-15T08:20:59.276Z,101563.66
2023-03-15T08:23:26.378Z,101564.84
2023-03-15T08:25:53.345Z,101571.69
2023-03-15T08:28:20.707Z,101576.44
2023-03-15T08:30:47.615Z,101586.66
2023-03-15T08:33:14.634Z,101585.75
2023-03-15T08:35:41.738Z,101577.47
2023-03-15T08:38:09.933Z,101581.75
2023-03-15T08:40:38.902Z,101573.00
2023-03-15T08:43:06.742Z,101573.34
2023-03-15T08:45:51.140Z,101586.53
2023-03-15T08:48:20.762Z,101595.22
2023-03-15T08:50:47.789Z,101600.28
2023-03-15T08:53:14.715Z,101594.22
2023-03-15T08:55:41.634Z,101614.16
2023-03-15T08:58:08.951Z,101616.88
2023-03-15T09:00:35.925Z,101611.69
2023-03-15T09:03:03.494Z,101625.63
2023-03-15T09:05:30.448Z,101632.06
2023-03-15T09:07:57.393Z,101625.59
2023-03-15T09:10:24.390Z,101624.59
2023-03-15T09:12:53.907Z,101617.41
2023-03-15T09:15:21.992Z,101633.06
2023-03-15T09:17:51.687Z,101619.38
2023-03-15T09:20:22.447Z,101621.44
2023-03-15T09:22:58.294Z,101624.53
2023-03-15T09:25:26.659Z,101623.09
2023-03-15T09:27:54.471Z,101613.84
2023-03-15T09:30:21.711Z,101615.44
2023-03-15T09:32:49.030Z,101617.38
2023-03-15T09:35:19.625Z,101622.78
2023-03-15T09:37:57.177Z,101630.63
2023-03-15T09:40:34.071Z,101621.94
2023-03-15T09:43:07.150Z,101628.47
2023-03-15T09:46:15.864Z,101638.63
2023-03-15T09:49:04.249Z,101628.25
2023-03-15T09:51:47.898Z,101629.88
2023-03-15T09:54:33.672Z,101627.63
2023-03-15T09:57:15.787Z,101630.72
2023-03-15T09:59:47.820Z,101619.50
2023-03-15T10:02:27.299Z,101627.34
2023-03-15T10:05:24.194Z,101625.16
2023-03-15T10:07:51.354Z,101627.25
2023-03-15T10:10:43.931Z,101634.09
2023-03-15T10:13:30.487Z,101641.91
2023-03-15T10:16:17.672Z,101646.00
2023-03-15T10:19:02.873Z,101646.38
2023-03-15T10:21:50.046Z,101644.34
2023-03-15T10:24:48.888Z,101644.53
2023-03-15T10:27:23.291Z,101651.06
2023-03-15T10:29:55.871Z,101645.72
2023-03-15T10:32:31.485Z,101648.84
2023-03-15T10:34:58.911Z,101662.41
2023-03-15T10:37:26.419Z,101657.44
2023-03-15T10:39:59.674Z,101662.94
2023-03-15T10:42:29.216Z,101653.16
2023-03-15T10:44:57.501Z,101657.75
2023-03-15T10:47:26.567Z,101658.03
2023-03-15T10:49:59.923Z,101658.59
2023-03-15T10:52:40.259Z,101673.75
2023-03-15T10:55:21.799Z,101667.72
2023-03-15T10:57:59.886Z,101663.44
2023-03-15T11:00:36.699Z,101677.19
2023-03-15T11:03:21.112Z,101666.03
2023-03-15T11:05:52.656Z,101662.75
2023-03-15T11:08:24.730Z,101663.78
2023-03-15T11:10:59.993Z,101662.91
2023-03-15T11:13:32.911Z,101658.78
2023-03-15T11:16:05.745Z,101676.94
2023-03-15T11:18:55.603Z,101672.50
2023-03-15T11:21:26.973Z,101668.50
2023-03-15T11:23:54.740Z,101663.97
2023-03-15T11:26:33.258Z,101684.09
2023-03-15T11:29:40.870Z,101670.56
2023-03-15T11:32:22.822Z,101660.03
2023-03-15T11:35:07.272Z,101669.44
2023-03-15T11:37:46.026Z,101655.94
2023-03-15T11:40:19.184Z,101652.84
2023-03-15T11:43:04.505Z,101649.75
2023-03-15T11:46:06.528Z,101656.97
2023-03-15T11:48:42.276Z,101654.69
2023-03-15T11:51:12.228Z,101659.09
2023-03-15T11:53:48.970Z,101655.69
2023-03-15T11:56:24.823Z,101644.44
2023-03-15T11:59:26.497Z,101646.97
2023-03-15T12:02:19.596Z,101661.09
2023-03-15T12:04:49.334Z,101642.25
2023-03-15T12:07:19.529Z,101639.72
2023-03-15T12:09:57.322Z,101650.75
2023-03-15T12:12:27.237Z,101626.28
2023-03-15T12:15:14.761Z,101623.22
2023-03-15T12:17:56.880Z,101633.44
2023-03-15T12:20:41.152Z,101629.44
2023-03-15T12:23:17.097Z,101632.88
2023-03-15T12:26:02.475Z,101636.97
2023-03-15T12:29:01.161Z,101628.06
2023-03-15T12:32:05.141Z,101632.13
2023-03-15T12:34:55.308Z,101613.88
2023-03-15T12:37:42.478Z,101628.66
2023-03-15T12:40:15.530Z,101624.19
2023-03-15T12:42:42.405Z,101625.38
2023-03-15T12:45:18.531Z,101621.28
2023-03-15T12:47:51.591Z,101624.72
2023-03-15T12:50:47.045Z,101624.91
2023-03-15T12:53:22.869Z,101622.56
2023-03-15T12:55:59.457Z,101605.25
2023-03-15T12:58:37.456Z,101611.22
2023-03-15T13:01:07.656Z,101629.31
2023-03-15T13:03:36.444Z,101621.31
2023-03-15T13:06:42.552Z,101624.72
2023-03-15T13:09:26.273Z,101621.59
2023-03-15T13:12:02.338Z,101618.66
2023-03-15T13:14:29.173Z,101631.25
2023-03-15T13:17:17.048Z,101625.16
2023-03-15T13:19:47.425Z,101619.69
2023-03-15T13:22:36.066Z,101600.13
2023-03-15T13:25:19.204Z,101609.56
2023-03-15T13:27:56.155Z,101604.75
2023-03-15T13:30:55.755Z,101601.97
2023-03-15T13:33:31.932Z,101620.56
2023-03-15T13:36:16.191Z,101622.09
2023-03-15T13:38:48.070Z,101611.91
2023-03-15T13:41:22.081Z,101617.22
2023-03-15T13:43:51.673Z,101629.66
2023-03-15T13:46:25.329Z,101623.53
2023-03-15T13:48:54.963Z,101622.69
2023-03-15T13:51:36.276Z,101623.63
2023-03-15T13:54:09.161Z,101634.53
2023-03-15T13:56:55.574Z,101627.41
2023-03-15T13:59:34.804Z,101619.41
2023-03-15T14:02:05.919Z,101612.25
2023-03-15T14:04:37.952Z,101607.53
2023-03-15T14:07:39.127Z,101603.25
2023-03-15T14:10:38.225Z,101620.22
2023-03-15T14:13:35.203Z,101615.69
2023-03-15T14:16:12.450Z,101623.38
2023-03-15T14:18:41.368Z,101620.16
2023-03-15T14:21:20.487Z,101614.38
2023-03-15T14:23:49.343Z,101612.28
2023-03-15T14:26:29.267Z,101602.59
2023-03-15T14:29:53.543Z,101597.69
2023-03-15T14:32:38.035Z,101595.22
2023-03-15T14:35:33.149Z,101573.47
2023-03-15T14:38:07.718Z,101593.34
2023-03-15T14:40:39.216Z,101593.00
2023-03-15T14:43:07.986Z,101580.00
2023-03-15T14:45:37.937Z,101583.31
2023-03-15T14:48:28.512Z,101578.59
2023-03-15T14:50:56.341Z,101575.50
2023-03-15T14:53:26.281Z,101582.09
2023-03-15T14:55:53.212Z,101578.81
2023-03-15T14:58:22.431Z,101585.69
2023-03-15T15:00:53.508Z,101589.38
2023-03-15T15:03:39.632Z,101596.28
2023-03-15T15:06:13.388Z,101593.41
2023-03-15T15:08:47.384Z,101580.91
2023-03-15T15:11:15.734Z,101583.03
2023-03-15T15:13:43.047Z,101570.56
2023-03-15T15:16:10.319Z,101573.97
2023-03-15T15:18:38.007Z,101564.22
2023-03-15T15:21:14.053Z,101568.56
2023-03-15T15:23:56.971Z,101568.88
2023-03-15T15:26:28.001Z,101568.19
2023-03-15T15:28:55.224Z,101561.16
2023-03-15T15:31:25.299Z,101564.66
2023-03-15T15:33:54.163Z,101567.09
2023-03-15T15:36:31.193Z,101551.00
2023-03-15T15:39:06.347Z,101554.78
2023-03-15T15:41:34.322Z,101554.44
2023-03-15T15:44:01.840Z,101543.31
2023-03-15T15:46:29.007Z,101538.47
2023-03-15T15:48:56.104Z,101522.72
2023-03-15T15:51:30.111Z,101527.88
2023-03-15T15:54:00.009Z,101529.69
2023-03-15T15:56:44.163Z,101524.03
2023-03-15T15:59:14.986Z,101525.06
2023-03-15T16:01:59.042Z,101528.13
2023-03-15T16:04:26.531Z,101516.28
2023-03-15T16:07:01.770Z,101504.09
2023-03-15T16:09:31.906Z,101507.72
2023-03-15T16:11:59.247Z,101510.47
2023-03-15T16:14:26.238Z,101513.16
2023-03-15T16:16:53.214Z,101514.84
2023-03-15T16:19:20.199Z,101526.84
2023-03-15T16:21:50.793Z,101520.53
2023-03-15T16:24:28.919Z,101502.44
2023-03-15T16:27:05.604Z,101518.53
2023-03-15T16:29:39.934Z,101517.19
2023-03-15T16:32:17.624Z,101513.81
2023-03-15T16:34:49.420Z,101517.59
2023-03-15T16:37:20.871Z,101521.31
2023-03-15T16:39:50.700Z,101508.59
2023-03-15T16:42:19.807Z,101520.72
2023-03-15T16:44:46.851Z,101529.75
2023-03-15T16:47:13.832Z,101528.78
2023-03-15T16:49:40.834Z,101526.19
2023-03-15T16:52:09.881Z,101526.41
2023-03-15T16:54:41.360Z,101537.78
2023-03-15T16:57:21.949Z,101537.28
2023-03-15T16:59:49.932Z,101538.56
2023-03-15T17:02:28.883Z,101532.78
2023-03-15T17:04:56.002Z,101514.72
2023-03-15T17:07:30.368Z,101529.69
2023-03-15T17:09:58.056Z,101522.97
2023-03-15T17:12:28.093Z,101514.16
2023-03-15T17:14:59.085Z,101516.16
2023-03-15T17:17:33.150Z,101523.28
2023-03-15T17:20:00.961Z,101532.16
2023-03-15T17:22:29.371Z,101526.22
2023-03-15T17:24:56.424Z,101535.50
2023-03-15T17:27:38.172Z,101525.91
2023-03-15T17:30:30.210Z,101533.50
2023-03-15T17:32:57.535Z,101536.25
2023-03-15T17:35:37.132Z,101541.00
2023-03-15T17:38:07.414Z,101545.44
2023-03-15T17:40:36.778Z,101550.47
2023-03-15T17:43:04.664Z,101543.44
2023-03-15T17:45:34.686Z,101545.00
2023-03-15T17:48:03.474Z,101537.25
2023-03-15T17:50:33.978Z,101538.75
2023-03-15T17:53:07.937Z,101530.38
2023-03-15T17:55:35.688Z,101542.47
2023-03-15T17:58:06.313Z,101546.88
2023-03-15T18:00:33.850Z,101542.84
2023-03-15T18:03:04.621Z,101541.75
2023-03-15T18:05:32.313Z,101536.50
2023-03-15T18:08:00.485Z,101542.19
2023-03-15T18:10:39.842Z,101541.72
2023-03-15T18:13:07.814Z,101532.25
2023-03-15T18:15:35.149Z,101537.34
2023-03-15T18:18:04.564Z,101547.13
2023-03-15T18:20:33.770Z,101545.28
2023-03-15T18:23:01.158Z,101540.28
2023-03-15T18:25:32.032Z,101542.28
2023-03-15T18:28:00.143Z,101538.53
2023-03-15T18:30:31.312Z,101536.09
2023-03-15T18:32:59.731Z,101545.16
2023-03-15T18:35:36.004Z,101547.41
2023-03-15T18:38:05.372Z,101547.56
2023-03-15T18:40:34.270Z,101553.09
2023-03-15T18:43:04.072Z,101546.72
2023-03-15T18:45:34.398Z,101544.22
2023-03-15T18:48:01.536Z,101558.88
2023-03-15T18:50:30.003Z,101551.91
2023-03-15T18:52:58.130Z,101544.22
2023-03-15T18:55:26.211Z,101548.63
2023-03-15T18:57:54.822Z,101545.59
2023-03-15T19:00:29.709Z,101541.16
2023-03-15T19:02:59.943Z,101563.22
2023-03-15T19:05:28.861Z,101550.22
2023-03-15T19:07:55.866Z,101549.25
2023-03-15T19:10:24.837Z,101537.03
2023-03-15T19:12:53.133Z,101532.19
2023-03-15T19:15:22.740Z,101528.16
2023-03-15T19:17:54.416Z,101514.72
2023-03-15T19:20:23.007Z,101530.28
2023-03-15T19:22:51.550Z,101520.72
2023-03-15T19:25:19.444Z,101520.47
2023-03-15T19:27:46.839Z,101528.69
2023-03-15T19:30:20.829Z,101523.47
2023-03-15T19:32:49.974Z,101523.25
2023-03-15T19:35:19.389Z,101523.47
2023-03-15T19:37:47.626Z,101525.22
2023-03-15T19:40:15.758Z,101512.09
2023-03-15T19:42:43.396Z,101500.75
2023-03-15T19:45:12.220Z,101504.72
2023-03-15T19:47:39.564Z,101515.44
2023-03-15T19:50:08.403Z,101514.78
2023-03-15T19:52:35.418Z,101512.66
2023-03-15T19:55:02.413Z,101510.94
2023-03-15T19:57:29.414Z,101505.97
2023-03-15T19:59:56.340Z,101506.19
2023-03-15T20:02:23.424Z,101504.34
2023-03-15T20:04:50.487Z,101503.56
2023-03-15T20:07:18.108Z,101511.31
2023-03-15T20:09:45.174Z,101518.75
2023-03-15T20:12:13.345Z,101515.16
2023-03-15T20:14:40.725Z,101507.16
2023-03-15T20:17:07.790Z,101506.19
2023-03-15T20:19:36.149Z,101497.00
2023-03-15T20:22:04.580Z,101505.50
2023-03-15T20:24:31.696Z,101510.47
2023-03-15T20:26:58.732Z,101497.59
2023-03-15T20:29:25.751Z,101501.34
2023-03-15T20:31:53.503Z,101495.56
2023-03-15T20:34:22.147Z,101489.22
2023-03-15T20:36:49.161Z,101493.59
2023-03-15T20:39:18.421Z,101493.91
2023-03-15T20:41:45.587Z,101492.38
2023-03-15T20:44:12.830Z,101484.44
2023-03-15T20:46:40.301Z,101491.97
2023-03-15T20:49:08.456Z,101489.59
2023-03-15T20:51:35.619Z,101485.75
2023-03-15T20:54:03.592Z,101484.91
2023-03-15T20:56:31.109Z,101477.31
2023-03-15T20:58:58.585Z,101465.97
2023-03-15T21:01:25.976Z,101471.16
2023-03-15T21:03:57.345Z,101473.91
2023-03-15T21:06:24.949Z,101475.00
2023-03-15T21:08:52.583Z,101473.25
2023-03-15T21:11:20.006Z,101473.22
2023-03-15T21:13:47.558Z,101458.56
2023-03-15T21:16:15.181Z,101471.19
2023-03-15T21:18:45.294Z,101470.75
2023-03-15T21:21:13.074Z,101463.38
2023-03-15T21:23:42.162Z,101470.88
2023-03-15T21:26:12.258Z,101471.22
2023-03-15T21:28:40.242Z,101465.72
2023-03-15T21:31:08.640Z,101466.91
2023-03-15T21:33:36.439Z,101459.75
2023-03-15T21:36:04.215Z,101469.31
2023-03-15T21:38:34.265Z,101474.34
2023-03-15T21:41:07.431Z,101459.25
2023-03-15T21:43:35.572Z,101464.84
2023-03-15T21:46:07.415Z,101468.16
2023-03-15T21:48:35.636Z,101471.44
2023-03-15T21:51:03.640Z,101448.53
2023-03-15T21:53:36.042Z,101452.19
2023-03-15T21:56:05.134Z,101451.69
2023-03-15T21:58:33.235Z,101450.78
2023-03-15T22:01:04.873Z,101433.16
2023-03-15T22:03:34.046Z,101442.13
2023-03-15T22:06:02.294Z,101441.31
2023-03-15T22:08:29.539Z,101450.03
2023-03-15T22:10:58.500Z,101434.00
2023-03-15T22:13:26.873Z,101440.31
2023-03-15T22:15:53.907Z,101439.88
2023-03-15T22:18:21.486Z,101437.31
2023-03-15T22:20:51.051Z,101442.47
2023-03-15T22:23:18.506Z,101434.25
2023-03-15T22:25:45.846Z,101437.25
2023-03-15T22:28:13.043Z,101434.09
2023-03-15T22:30:40.899Z,101447.00
2023-03-15T22:33:08.631Z,101424.78
2023-03-15T22:35:35.810Z,101443.19
2023-03-15T22:38:09.946Z,101428.97
2023-03-15T22:40:39.895Z,101429.56
2023-03-15T22:43:08.252Z,101418.63
2023-03-15T22:45:35.429Z,101421.59
2023-03-15T22:48:03.306Z,101414.13
2023-03-15T22:50:30.481Z,101416.06
2023-03-15T22:52:57.523Z,101414.69
2023-03-15T22:55:25.090Z,101410.41
2023-03-15T22:57:52.381Z,101422.16
2023-03-15T23:00:22.514Z,101424.34
2023-03-15T23:02:49.566Z,101423.09
2023-03-15T23:05:19.610Z,101402.94
2023-03-15T23:07:47.148Z,101414.03
2023-03-15T23:10:14.773Z,101404.56
2023-03-15T23:12:41.863Z,101412.47
2023-03-15T23:15:10.378Z,101419.38
2023-03-15T23:17:37.399Z,101417.13
2023-03-15T23:20:07.276Z,101418.09
2023-03-15T23:22:34.315Z,101413.56
2023-03-15T23:25:02.040Z,101417.84
2023-03-15T23:27:29.609Z,101415.56
2023-03-15T23:29:56.548Z,101424.69
2023-03-15T23:32:31.712Z,101412.44
2023-03-15T23:35:03.484Z,101413.44
2023-03-15T23:37:30.500Z,101409.47
2023-03-15T23:39:57.731Z,101417.06
2023-03-15T23:42:25.974Z,101415.66
2023-03-15T23:45:05.878Z,101407.72
2023-03-15T23:47:32.895Z,101403.22
2023-03-15T23:49:59.845Z,101406.22
2023-03-15T23:52:26.796Z,101408.03
2023-03-15T23:54:53.983Z,101403.97
2023-03-15T23:57:21.501Z,101396.16
2023-03-15T23:59:48.636Z,101400.53
